Terminal Aerodrome Forecast
Issued by NWS Spokane, WA

Home | Current Version | Previous Version | Text Only | Print | Product List | Glossary On
Versions: 1 2 3 4 5 6 7 8 9 10 11 12 13 14 15 16 17 18 19 20 21 22 23 24 25 26 27 28 29 30 31 32 33 34
000
FTUS46 KOTX 221143 CCA
TAFEAT
TAF COR
KEAT 221143Z 2212/2312 11010KT P6SM VCSH BKN080 OVC100
      TEMPO 2214/2218 -RA SCT040 OVC070
     FM221800 10009KT 6SM -RA BR BKN040 OVC060
     FM230200 08004KT 5SM -RA BR BKN025 OVC040
     FM230800 30007KT P6SM VCSH FEW007 SCT025 OVC050=

USA.gov is the U.S. government's official web portal to all federal, state and local government web resources and services.